Time;durP1;ratioP1;P1;durP2;ratioP2;P2;SDS_P1;SDS_P2;PMS_P1;PMS_P2;Temp;Humidity;BMP_temperature;BMP_pressure;BME280_temperature;BME280_humidity;BME280_pressure;Samples;Min_cycle;Max_cycle;Signal;HPM_P1;HPM_P2
2020/12/02 00:01:33;;;;;;;36.83;26.87;;;;;;;3.98;81.22;101057.50;5017054;28;20207;-78
2020/12/02 00:04:05;;;;;;;34.60;26.23;;;;;;;3.95;81.48;101053.16;5017907;28;20245;-79
2020/12/02 00:06:32;;;;;;;33.57;27.17;;;;;;;4.01;82.05;101048.97;5016877;28;20230;-78
2020/12/02 00:09:01;;;;;;;36.13;28.00;;;;;;;3.98;82.10;101048.06;5016915;28;20207;-77
2020/12/02 00:11:28;;;;;;;33.43;26.60;;;;;;;3.99;82.06;101046.34;5017312;28;20203;-78
2020/12/02 00:13:59;;;;;;;36.87;27.47;;;;;;;3.98;82.26;101050.66;5014989;28;20202;-77
2020/12/02 00:16:27;;;;;;;34.00;26.27;;;;;;;4.00;81.81;101049.78;5017338;28;20237;-79
2020/12/02 00:18:54;;;;;;;33.90;26.40;;;;;;;4.04;82.02;101046.41;5014250;28;20573;-78
2020/12/02 00:21:21;;;;;;;36.60;27.93;;;;;;;4.02;82.23;101040.34;5019407;28;20207;-78
2020/12/02 00:23:47;;;;;;;35.37;27.07;;;;;;;4.04;82.54;101043.84;5021562;28;20218;-77
2020/12/02 00:26:15;;;;;;;30.87;25.10;;;;;;;4.06;82.48;101044.72;5012411;28;20230;-78
2020/12/02 00:28:42;;;;;;;34.77;26.80;;;;;;;4.05;82.49;101045.59;5020400;28;20202;-77
2020/12/02 00:31:09;;;;;;;29.97;25.70;;;;;;;4.01;82.69;101046.38;5021493;28;20203;-78
2020/12/02 00:33:34;;;;;;;33.07;27.03;;;;;;;3.98;82.37;101045.50;5020670;28;20218;-76
2020/12/02 00:36:00;;;;;;;29.60;25.17;;;;;;;4.03;82.81;101042.13;5020922;28;20203;-79
2020/12/02 00:38:26;;;;;;;30.13;25.17;;;;;;;4.05;82.52;101043.00;5019895;28;20268;-77
2020/12/02 00:40:52;;;;;;;33.60;26.23;;;;;;;4.01;82.05;101039.50;5020779;28;20207;-78
2020/12/02 00:43:20;;;;;;;34.20;25.67;;;;;;;4.00;82.22;101042.91;5020630;28;20277;-78
2020/12/02 00:45:48;;;;;;;34.13;24.80;;;;;;;4.00;82.09;101042.91;5020801;28;20675;-78
2020/12/02 00:48:17;;;;;;;33.57;26.07;;;;;;;4.01;82.33;101047.25;5020259;28;20227;-78
2020/12/02 00:50:43;;;;;;;35.20;26.10;;;;;;;4.02;82.43;101048.09;5021199;28;20198;-78
2020/12/02 00:53:11;;;;;;;31.63;25.93;;;;;;;4.00;82.54;101048.06;5019682;28;20207;-78
2020/12/02 00:55:37;;;;;;;35.13;27.00;;;;;;;3.98;82.46;101047.19;5020291;28;20589;-77
2020/12/02 00:58:03;;;;;;;33.23;25.90;;;;;;;4.01;82.41;101043.81;5019760;28;20269;-78
2020/12/02 01:00:35;;;;;;;33.80;25.73;;;;;;;4.01;82.12;101043.81;5020431;28;20207;-78
2020/12/02 01:03:05;;;;;;;32.27;24.90;;;;;;;4.01;82.36;101043.81;5019183;28;20211;-78
2020/12/02 01:05:34;;;;;;;31.50;24.83;;;;;;;4.05;81.91;101048.19;5019930;28;20203;-78
2020/12/02 01:08:18;;;;;;;31.20;25.03;;;;;;;4.03;81.77;101047.28;5019772;28;20230;-79
2020/12/02 01:10:46;;;;;;;29.50;24.50;;;;;;;4.01;82.24;101049.81;5019931;28;20322;-77
2020/12/02 01:13:12;;;;;;;32.93;24.27;;;;;;;3.97;82.69;101048.91;5019751;28;20701;-77
2020/12/02 01:15:38;;;;;;;29.97;24.03;;;;;;;4.02;82.19;101045.53;5020092;28;20238;-79
2020/12/02 01:18:13;;;;;;;31.30;24.77;;;;;;;4.04;82.37;101046.41;5019387;28;20638;-78
2020/12/02 01:20:39;;;;;;;30.60;24.87;;;;;;;4.05;82.24;101049.03;5019848;28;20206;-78
2020/12/02 01:23:06;;;;;;;28.63;24.53;;;;;;;4.04;82.08;101047.28;5019878;28;20211;-77
2020/12/02 01:25:32;;;;;;;34.03;24.33;;;;;;;3.98;82.21;101047.19;5019608;28;20211;-77
2020/12/02 01:28:03;;;;;;;29.53;24.23;;;;;;;3.98;82.21;101040.31;5019780;28;20231;-78
2020/12/02 01:30:31;;;;;;;30.70;24.23;;;;;;;3.96;82.33;101044.59;5020230;28;20199;-78
2020/12/02 01:32:57;;;;;;;29.30;24.77;;;;;;;3.99;82.80;101038.59;5018580;28;20230;-78
2020/12/02 01:35:26;;;;;;;31.83;24.47;;;;;;;3.96;82.47;101042.00;5019269;28;20267;-77
2020/12/02 01:37:56;;;;;;;28.77;24.03;;;;;;;3.96;82.57;101042.00;5019320;28;20230;-77
2020/12/02 01:40:24;;;;;;;30.87;23.33;;;;;;;3.97;82.70;101042.88;5019958;28;20203;-78
2020/12/02 01:42:54;;;;;;;26.43;23.57;;;;;;;4.00;82.28;101044.63;5019413;28;20210;-77
2020/12/02 01:45:25;;;;;;;30.63;23.73;;;;;;;3.98;82.67;101047.19;5019229;28;20203;-78
2020/12/02 01:48:31;;;;;;;30.63;25.03;;;;;;;3.97;82.73;101046.31;5018881;28;20258;-78
2020/12/02 01:51:01;;;;;;;27.50;24.07;;;;;;;3.97;82.34;101041.16;5002516;28;20211;-77
2020/12/02 01:53:45;;;;;;;31.70;23.37;;;;;;;4.02;82.84;101040.34;5018670;28;20257;-78
2020/12/02 01:56:18;;;;;;;28.97;23.63;;;;;;;3.90;82.89;101044.44;5019760;28;20210;-78
2020/12/02 01:58:52;;;;;;;27.10;24.07;;;;;;;3.95;82.75;101040.25;5017320;28;20677;-78
2020/12/02 02:01:23;;;;;;;27.60;23.73;;;;;;;3.96;82.81;101033.38;5019584;28;20217;-78
2020/12/02 02:03:52;;;;;;;28.80;23.90;;;;;;;3.95;83.29;101031.63;5018363;28;20210;-78
2020/12/02 02:06:26;;;;;;;32.33;25.03;;;;;;;3.97;82.96;101027.38;5018911;28;20226;-79
2020/12/02 02:08:52;;;;;;;35.30;25.27;;;;;;;3.95;82.74;101032.50;5019065;28;20203;-79
2020/12/02 02:11:21;;;;;;;29.40;24.07;;;;;;;3.95;82.92;101035.09;5018666;28;20210;-77
2020/12/02 02:14:13;;;;;;;31.43;25.03;;;;;;;3.95;82.79;101029.91;5016720;28;20215;-77
2020/12/02 02:16:41;;;;;;;29.80;23.63;;;;;;;3.96;82.62;101028.19;5018929;28;20231;-78
2020/12/02 02:19:12;;;;;;;31.33;24.70;;;;;;;3.94;82.99;101028.19;5019000;28;20211;-78
2020/12/02 02:21:38;;;;;;;30.50;24.03;;;;;;;3.96;82.63;101033.38;5018371;28;20207;-78
2020/12/02 02:24:05;;;;;;;29.73;24.83;;;;;;;4.00;82.53;101035.16;5018928;28;20233;-77
2020/12/02 02:26:36;;;;;;;30.67;23.93;;;;;;;4.00;82.93;101031.72;5018241;28;20234;-77
2020/12/02 02:29:09;;;;;;;30.90;24.50;;;;;;;3.98;82.22;101026.50;5018865;28;20207;-78
2020/12/02 02:31:41;;;;;;;31.33;24.03;;;;;;;4.02;82.48;101028.31;5018667;28;20203;-78
2020/12/02 02:34:10;;;;;;;31.17;23.77;;;;;;;4.02;82.55;101030.03;5018474;28;20552;-76
2020/12/02 02:36:36;;;;;;;30.13;23.63;;;;;;;4.02;82.18;101023.13;5017333;28;21626;-77
2020/12/02 02:39:02;;;;;;;31.90;24.03;;;;;;;3.95;82.27;101019.59;5019237;28;20234;-77
2020/12/02 02:41:29;;;;;;;33.87;25.33;;;;;;;3.92;83.11;101021.25;5019004;28;20206;-78
2020/12/02 02:43:56;;;;;;;30.07;23.60;;;;;;;3.93;82.49;101015.25;5018123;28;20210;-78
2020/12/02 02:46:22;;;;;;;31.17;24.70;;;;;;;3.94;82.20;101014.38;5018255;28;20258;-79
2020/12/02 02:48:48;;;;;;;30.17;24.20;;;;;;;3.86;83.20;101013.38;5018577;28;20265;-77
2020/12/02 02:51:14;;;;;;;30.43;24.67;;;;;;;3.89;83.03;101023.78;5018593;28;20207;-76
2020/12/02 02:53:40;;;;;;;28.27;23.53;;;;;;;3.91;82.46;101016.94;5017819;28;20628;-77
2020/12/02 02:56:06;;;;;;;32.73;24.80;;;;;;;3.91;82.99;101016.94;5017757;28;20230;-79
2020/12/02 02:58:32;;;;;;;32.30;23.60;;;;;;;3.91;82.42;101019.53;5017357;28;20230;-78
2020/12/02 03:01:01;;;;;;;27.17;23.07;;;;;;;3.92;82.47;101016.06;5018836;28;20210;-78
2020/12/02 03:03:28;;;;;;;31.13;23.43;;;;;;;3.97;82.81;101017.91;5017880;28;20253;-78
2020/12/02 03:05:54;;;;;;;31.80;23.83;;;;;;;3.98;82.51;101005.84;5018064;28;20199;-78
2020/12/02 03:08:20;;;;;;;30.10;23.63;;;;;;;3.96;82.87;101016.19;5017571;28;20234;-78
2020/12/02 03:10:46;;;;;;;29.63;23.20;;;;;;;3.96;82.48;101017.88;5018798;28;20203;-77
2020/12/02 03:13:26;;;;;;;30.60;22.43;;;;;;;3.95;82.72;101018.72;5017841;28;20262;-78
2020/12/02 03:15:53;;;;;;;31.20;24.10;;;;;;;3.93;82.61;101010.94;5018134;28;20217;-78
2020/12/02 03:18:21;;;;;;;34.80;25.30;;;;;;;3.88;83.00;101009.13;5016831;28;20712;-78
2020/12/02 03:20:51;;;;;;;36.63;24.03;;;;;;;3.87;83.22;101005.69;5018378;28;20210;-77
2020/12/02 03:23:18;;;;;;;34.27;24.20;;;;;;;3.91;82.89;101007.47;5017867;28;20215;-78
2020/12/02 03:25:45;;;;;;;31.53;24.23;;;;;;;3.93;82.36;101007.50;5017848;28;20238;-77
2020/12/02 03:28:11;;;;;;;30.73;23.70;;;;;;;3.88;83.07;101003.97;5017621;28;20231;-78
2020/12/02 03:30:39;;;;;;;31.47;25.00;;;;;;;3.82;82.96;101009.00;5018236;28;20623;-78
2020/12/02 03:33:06;;;;;;;33.17;24.47;;;;;;;3.84;83.03;101004.75;5017707;28;20265;-78
2020/12/02 03:35:33;;;;;;;30.57;24.10;;;;;;;3.87;82.52;101003.09;5017553;28;20214;-77
2020/12/02 03:37:59;;;;;;;30.07;24.20;;;;;;;3.87;83.03;100999.66;5017067;28;20260;-78
2020/12/02 03:40:24;;;;;;;30.57;23.93;;;;;;;3.90;82.73;101003.13;5017498;28;20203;-78
2020/12/02 03:42:51;;;;;;;32.27;24.63;;;;;;;3.90;82.64;101002.28;5018275;28;20743;-78
2020/12/02 03:45:17;;;;;;;28.10;22.90;;;;;;;3.90;82.57;101000.53;5017808;28;20203;-78
2020/12/02 03:47:43;;;;;;;29.80;23.90;;;;;;;3.94;82.52;101006.63;5017025;28;20231;-79
2020/12/02 03:50:10;;;;;;;31.93;23.80;;;;;;;3.94;82.23;101001.47;5017758;28;20580;-79
2020/12/02 03:52:38;;;;;;;31.30;23.70;;;;;;;3.91;82.43;101002.31;5017930;28;20678;-77
2020/12/02 03:55:06;;;;;;;29.77;23.30;;;;;;;3.95;81.88;100998.94;5017434;28;20744;-78
2020/12/02 03:57:32;;;;;;;27.87;23.03;;;;;;;3.97;82.19;100996.38;5021081;28;20289;-78
2020/12/02 03:59:58;;;;;;;29.80;24.70;;;;;;;3.96;82.42;100998.09;5021690;28;20206;-78
2020/12/02 04:02:23;;;;;;;26.97;24.23;;;;;;;3.94;82.33;100997.19;5021818;28;20210;-77
2020/12/02 04:04:49;;;;;;;29.80;24.13;;;;;;;3.95;82.10;100995.47;5020816;28;20252;-77
2020/12/02 04:07:15;;;;;;;30.33;23.73;;;;;;;3.96;82.08;100989.47;5021190;28;20621;-78
2020/12/02 04:09:42;;;;;;;28.40;23.77;;;;;;;3.93;82.39;100986.84;5022028;28;20277;-77
2020/12/02 04:12:08;;;;;;;25.67;22.63;;;;;;;3.93;82.15;100984.25;5021394;28;20210;-77
2020/12/02 04:14:33;;;;;;;25.37;22.67;;;;;;;3.97;82.04;100984.31;5021067;28;20620;-77
2020/12/02 04:16:59;;;;;;;27.23;22.20;;;;;;;3.98;81.92;100982.59;5020629;28;20219;-77
2020/12/02 04:19:25;;;;;;;32.80;22.33;;;;;;;3.94;82.17;100985.97;5020336;28;20221;-78
2020/12/02 04:21:54;;;;;;;30.50;22.73;;;;;;;4.00;82.11;100980.06;5020310;28;20680;-77
2020/12/02 04:24:20;;;;;;;25.93;21.83;;;;;;;3.90;82.17;100976.44;5020092;28;20724;-78
2020/12/02 04:26:47;;;;;;;23.93;21.50;;;;;;;3.86;81.87;100977.25;5020800;28;20318;-77
2020/12/02 04:29:13;;;;;;;27.00;22.30;;;;;;;3.90;81.99;100974.72;5013206;28;20203;-79
2020/12/02 04:31:39;;;;;;;29.50;23.47;;;;;;;3.88;82.01;100976.41;5020223;28;20253;-77
2020/12/02 04:34:04;;;;;;;23.97;21.50;;;;;;;3.87;82.31;100979.00;5020343;28;20262;-77
2020/12/02 04:36:30;;;;;;;27.90;24.27;;;;;;;3.91;82.36;100973.03;5019921;28;20722;-77
2020/12/02 04:38:56;;;;;;;28.43;23.80;;;;;;;3.90;82.66;100974.72;5021127;28;20202;-78
2020/12/02 04:41:22;;;;;;;28.97;24.00;;;;;;;3.86;82.45;100972.94;5020944;28;20708;-79
2020/12/02 04:43:53;;;;;;;28.30;22.73;;;;;;;3.90;82.13;100973.88;5021066;28;20210;-78
2020/12/02 04:46:21;;;;;;;26.63;23.30;;;;;;;3.88;81.67;100973.81;5020735;28;20214;-78
2020/12/02 04:49:00;;;;;;;26.27;22.73;;;;;;;3.87;82.09;100966.94;5019919;28;20213;-77
2020/12/02 04:51:28;;;;;;;26.77;23.00;;;;;;;3.91;81.83;100979.06;5021134;28;20206;-78
2020/12/02 04:53:57;;;;;;;28.80;23.33;;;;;;;3.88;81.85;100973.81;5018203;28;20626;-78
2020/12/02 04:56:25;;;;;;;27.40;23.10;;;;;;;3.86;82.06;100967.78;5019690;28;20319;-77
2020/12/02 04:58:53;;;;;;;27.20;22.53;;;;;;;3.84;82.10;100959.13;5020039;28;20245;-77
2020/12/02 05:01:22;;;;;;;31.10;24.30;;;;;;;3.87;82.21;100959.19;5020424;28;20589;-77
2020/12/02 05:03:54;;;;;;;31.97;25.00;;;;;;;3.81;82.71;100963.41;5017981;28;20210;-78
2020/12/02 05:06:30;;;;;;;27.10;23.83;;;;;;;3.89;81.79;100962.66;5020173;28;20281;-77
2020/12/02 05:09:16;;;;;;;29.30;23.80;;;;;;;3.89;82.13;100957.50;5017444;28;20272;-78
2020/12/02 05:11:53;;;;;;;33.53;22.80;;;;;;;3.90;82.04;100966.97;5020266;28;20214;-78
2020/12/02 05:14:19;;;;;;;32.80;23.87;;;;;;;3.89;81.99;100952.34;5019980;28;20550;-79
2020/12/02 05:17:00;;;;;;;33.47;24.73;;;;;;;3.86;82.10;100969.50;5018020;28;20589;-78
2020/12/02 05:19:26;;;;;;;31.47;25.80;;;;;;;3.86;82.01;100965.19;5012931;28;20203;-77
2020/12/02 05:22:03;;;;;;;32.07;23.77;;;;;;;3.87;81.80;100961.78;5018314;28;20277;-78
2020/12/02 05:24:29;;;;;;;35.07;26.00;;;;;;;3.86;81.84;100962.59;5018622;28;20722;-78
2020/12/02 05:27:02;;;;;;;34.87;26.23;;;;;;;3.84;81.33;100959.13;5018079;28;20227;-78
2020/12/02 05:29:39;;;;;;;35.77;25.80;;;;;;;3.88;80.99;100960.91;5018933;28;20207;-77
2020/12/02 05:32:12;;;;;;;35.07;25.77;;;;;;;3.81;81.43;100959.09;5018288;28;20207;-78
2020/12/02 05:34:38;;;;;;;34.93;26.57;;;;;;;3.85;81.12;100957.44;5018288;28;20194;-79
2020/12/02 05:37:09;;;;;;;34.90;26.90;;;;;;;3.80;81.08;100954.75;5024045;28;20253;-77
2020/12/02 05:39:46;;;;;;;32.10;25.97;;;;;;;3.80;80.57;100961.63;5026756;28;20246;-77
2020/12/02 05:42:22;;;;;;;34.77;25.57;;;;;;;3.77;80.72;100960.75;5026404;28;20662;-78
2020/12/02 05:44:56;;;;;;;36.83;25.17;;;;;;;3.74;81.34;100947.78;5026561;28;20213;-78
2020/12/02 05:47:22;;;;;;;37.87;27.23;;;;;;;3.73;80.81;100947.78;5026185;28;20231;-79
2020/12/02 05:49:51;;;;;;;39.13;27.50;;;;;;;3.77;81.56;100953.00;5026386;28;20213;-77
2020/12/02 05:52:24;;;;;;;35.33;26.03;;;;;;;3.81;81.51;100953.06;5016525;28;20247;-78
2020/12/02 05:54:55;;;;;;;40.53;26.83;;;;;;;3.80;81.06;100947.00;5014882;28;20211;-78
2020/12/02 05:57:21;;;;;;;39.90;26.87;;;;;;;3.82;81.14;100941.88;5007541;28;20258;-77
2020/12/02 05:59:49;;;;;;;37.07;28.07;;;;;;;3.80;81.18;100941.84;5014949;28;20726;-78
2020/12/02 06:02:18;;;;;;;36.77;26.67;;;;;;;3.78;81.58;100939.22;5014760;28;20203;-78
2020/12/02 06:04:49;;;;;;;40.73;26.77;;;;;;;3.80;81.27;100940.97;5014484;28;20203;-78
2020/12/02 06:07:15;;;;;;;36.50;26.37;;;;;;;3.75;81.98;100931.44;5014668;28;20253;-79
2020/12/02 06:09:43;;;;;;;35.63;26.03;;;;;;;3.75;81.16;100933.19;5014945;28;20199;-78
2020/12/02 06:12:14;;;;;;;35.67;27.00;;;;;;;3.73;81.62;100932.28;5014401;28;20207;-77
2020/12/02 06:14:40;;;;;;;40.40;26.43;;;;;;;3.70;82.03;100930.50;5014478;28;20234;-78
2020/12/02 06:17:10;;;;;;;36.60;26.07;;;;;;;3.69;81.46;100931.34;5014318;28;20708;-80
2020/12/02 06:19:47;;;;;;;35.50;26.30;;;;;;;3.74;81.39;100931.41;5014492;28;20234;-78
2020/12/02 06:22:13;;;;;;;36.63;25.77;;;;;;;3.71;81.58;100937.41;5014211;28;20210;-78
2020/12/02 06:24:42;;;;;;;36.80;26.17;;;;;;;3.72;81.42;100928.81;5013979;28;20777;-78
2020/12/02 06:27:44;;;;;;;41.60;27.13;;;;;;;3.70;82.06;100937.38;5013329;28;20242;-79
2020/12/02 06:30:15;;;;;;;40.40;27.50;;;;;;;3.71;81.80;100940.00;4953802;29;20212;-78
2020/12/02 06:32:57;;;;;;;35.87;27.23;;;;;;;3.74;81.59;100939.16;4953456;29;20213;-77
2020/12/02 06:35:23;;;;;;;41.70;28.23;;;;;;;3.69;82.15;100941.69;4982937;28;20203;-78
2020/12/02 06:38:12;;;;;;;40.63;28.63;;;;;;;3.71;82.23;100944.28;5013619;28;20670;-78
2020/12/02 06:40:51;;;;;;;33.67;26.00;;;;;;;3.70;82.18;100939.97;5014353;28;20626;-78
2020/12/02 06:43:23;;;;;;;34.07;26.07;;;;;;;3.72;82.14;100946.88;5013468;28;20232;-78
2020/12/02 06:45:48;;;;;;;41.03;27.20;;;;;;;3.68;81.90;100939.94;5013640;28;20202;-79
2020/12/02 06:48:28;;;;;;;44.13;29.63;;;;;;;3.71;82.27;100937.41;5013105;28;20230;-78
2020/12/02 06:50:58;;;;;;;40.70;27.47;;;;;;;3.76;81.66;100933.19;5014157;28;20253;-78
2020/12/02 06:53:25;;;;;;;40.23;27.17;;;;;;;3.76;82.16;100933.19;5013603;28;20202;-78
2020/12/02 06:55:56;;;;;;;35.13;26.10;;;;;;;3.72;81.37;100933.09;5013472;28;20277;-78
2020/12/02 06:58:22;;;;;;;37.20;27.43;;;;;;;3.75;82.17;100928.00;5012966;28;20289;-78
2020/12/02 07:00:51;;;;;;;33.47;25.47;;;;;;;3.76;81.90;100920.25;5014000;28;20199;-78
2020/12/02 07:03:25;;;;;;;42.70;27.70;;;;;;;3.75;81.56;100928.00;5013112;28;20670;-78
2020/12/02 07:05:54;;;;;;;35.50;25.80;;;;;;;3.77;81.47;100923.75;5013611;28;20204;-78
2020/12/02 07:08:25;;;;;;;42.00;27.17;;;;;;;3.77;81.25;100921.16;5012973;28;20244;-78
2020/12/02 07:11:07;;;;;;;36.63;27.83;;;;;;;3.82;81.34;100923.81;5013459;28;20260;-78
2020/12/02 07:13:37;;;;;;;38.50;26.50;;;;;;;3.81;81.23;100925.53;5013380;28;20230;-78
2020/12/02 07:16:10;;;;;;;38.00;26.50;;;;;;;3.79;81.21;100924.63;5013056;28;20213;-78
2020/12/02 07:18:36;;;;;;;40.87;27.80;;;;;;;3.83;81.71;100925.56;5013096;28;20238;-78
2020/12/02 07:21:15;;;;;;;37.70;27.33;;;;;;;3.82;81.53;100921.22;5013287;28;20331;-78
2020/12/02 07:23:41;;;;;;;38.43;27.53;;;;;;;3.81;81.34;100920.38;5013087;28;20589;-78
2020/12/02 07:26:10;;;;;;;38.07;27.20;;;;;;;3.81;81.18;100922.09;5012693;28;20301;-78
2020/12/02 07:28:36;;;;;;;36.77;27.60;;;;;;;3.82;81.25;100913.47;5013776;28;20281;-79
2020/12/02 07:31:10;;;;;;;38.23;27.17;;;;;;;3.77;81.43;100921.16;5013914;28;20207;-79
2020/12/02 07:33:39;;;;;;;41.87;28.20;;;;;;;3.77;81.24;100921.16;5014568;28;20633;-78
2020/12/02 07:36:11;;;;;;;37.53;25.53;;;;;;;3.77;81.76;100918.56;5014401;28;20207;-79
2020/12/02 07:38:37;;;;;;;38.73;27.03;;;;;;;3.74;82.15;100918.50;5015238;28;20222;-79
2020/12/02 07:41:11;;;;;;;38.73;27.43;;;;;;;3.74;81.95;100916.78;5014923;28;20203;-79
2020/12/02 07:43:38;;;;;;;40.00;27.20;;;;;;;3.75;81.52;100921.13;5014098;28;20619;-78
2020/12/02 07:46:04;;;;;;;46.67;30.73;;;;;;;3.76;82.02;100917.69;5014529;28;20205;-79
2020/12/02 07:48:33;;;;;;;36.40;26.53;;;;;;;3.78;81.47;100921.16;5013279;28;20270;-78
2020/12/02 07:51:20;;;;;;;40.93;27.73;;;;;;;3.79;81.85;100916.88;5015174;28;20206;-80
2020/12/02 07:54:00;;;;;;;38.33;27.27;;;;;;;3.83;81.87;100917.81;5013943;28;20203;-80
2020/12/02 07:56:29;;;;;;;40.97;27.03;;;;;;;3.82;82.04;100916.06;5012649;28;20202;-80
2020/12/02 07:58:56;;;;;;;41.77;27.33;;;;;;;3.84;82.23;100917.81;5008680;28;20199;-80
2020/12/02 08:01:43;;;;;;;48.20;28.63;;;;;;;3.83;82.04;100908.34;5014439;28;20225;-79
2020/12/02 08:04:25;;;;;;;38.63;27.47;;;;;;;3.77;81.93;100914.28;5013719;28;20199;-79
2020/12/02 08:07:00;;;;;;;44.27;28.37;;;;;;;3.84;81.30;100915.22;5009075;28;20222;-79
2020/12/02 08:09:25;;;;;;;39.27;28.17;;;;;;;3.88;80.98;100906.69;5013966;28;20202;-79
2020/12/02 08:11:55;;;;;;;38.67;26.97;;;;;;;3.88;81.58;100919.59;5013703;28;20206;-80
2020/12/02 08:14:26;;;;;;;42.17;27.93;;;;;;;3.85;81.42;100914.41;5013932;28;20211;-79
2020/12/02 08:16:54;;;;;;;44.00;29.87;;;;;;;3.89;81.56;100917.91;5013306;28;20739;-80
2020/12/02 08:19:29;;;;;;;43.57;28.37;;;;;;;3.84;81.41;100917.81;5014068;28;20227;-79
2020/12/02 08:21:55;;;;;;;46.57;29.47;;;;;;;3.86;81.50;100921.28;4999775;28;20209;-80
2020/12/02 08:24:33;;;;;;;38.13;26.80;;;;;;;3.91;81.62;100906.75;5011156;28;20239;-80
2020/12/02 08:27:01;;;;;;;43.50;29.23;;;;;;;3.85;81.11;100904.06;5011354;28;20580;-79
2020/12/02 08:29:30;;;;;;;46.57;35.60;;;;;;;3.92;81.46;100892.13;5015040;28;20435;-78
2020/12/02 08:32:04;;;;;;;48.23;30.83;;;;;;;3.96;80.88;100899.06;5013807;28;20195;-80
2020/12/02 08:34:32;;;;;;;46.93;29.50;;;;;;;3.96;81.09;100897.38;5013020;28;20253;-79
2020/12/02 08:37:24;;;;;;;44.90;30.53;;;;;;;3.94;80.91;100900.75;5012647;28;20277;-79
2020/12/02 08:39:52;;;;;;;40.93;28.40;;;;;;;3.94;80.92;100893.91;5009740;28;20392;-79
2020/12/02 08:42:26;;;;;;;43.43;29.13;;;;;;;3.92;81.16;100889.53;5011763;28;20207;-79
2020/12/02 08:45:06;;;;;;;41.63;28.50;;;;;;;3.96;81.17;100891.31;5016059;28;20614;-79
2020/12/02 08:47:32;;;;;;;48.05;34.50;;;;;;;3.96;81.04;100896.47;5015008;28;20537;-79
2020/12/02 08:49:58;;;;;;;46.30;30.60;;;;;;;3.98;81.15;100887.94;5015628;28;20198;-80
2020/12/02 08:52:23;;;;;;;48.07;30.67;;;;;;;3.91;81.23;100888.66;5015329;28;20210;-79
2020/12/02 08:54:49;;;;;;;44.27;29.20;;;;;;;3.96;81.04;100888.72;5015600;28;20195;-80
2020/12/02 08:57:15;;;;;;;40.70;28.07;;;;;;;3.97;81.04;100891.34;5015052;28;20219;-80
2020/12/02 08:59:42;;;;;;;43.60;29.10;;;;;;;3.98;80.99;100890.50;5015772;28;20246;-79
2020/12/02 09:02:26;;;;;;;43.87;29.13;;;;;;;3.97;81.17;100893.06;5016125;28;20257;-80
2020/12/02 09:07:54;;;;;;;45.33;36.17;;;;;;;4.06;80.89;100888.03;4973411;28;20457;-81
2020/12/02 09:13:55;;;;;;;43.50;28.27;;;;;;;4.03;81.10;100881.97;4896974;28;20224;-81
2020/12/02 09:21:32;;;;;;;45.53;29.53;;;;;;;3.95;81.13;100876.69;5359760;22;20229;-82
2020/12/02 09:24:00;;;;;;;42.57;29.00;;;;;;;3.96;81.42;100866.38;5027106;28;20206;-81
2020/12/02 09:32:08;;;;;;;44.10;28.53;;;;;;;3.90;81.43;100855.94;5019947;28;20649;-81
2020/12/02 09:35:15;;;;;;;42.40;27.97;;;;;;;3.91;81.45;100857.69;5026859;28;20733;-81
2020/12/02 09:37:54;;;;;;;43.80;28.43;;;;;;;3.93;81.53;100857.72;5022601;28;20227;-81
2020/12/02 09:40:21;;;;;;;47.60;28.83;;;;;;;3.89;81.48;100853.34;5029661;28;20542;-82
2020/12/02 09:43:15;;;;;;;46.43;29.97;;;;;;;3.92;81.67;100858.53;5024519;28;20214;-82
2020/12/02 09:45:50;;;;;;;43.97;28.13;;;;;;;3.90;82.13;100858.50;5024018;28;20203;-81
2020/12/02 09:48:19;;;;;;;45.63;28.67;;;;;;;3.91;81.90;100861.97;5019032;28;20675;-81
2020/12/02 09:53:35;;;;;;;39.27;27.67;;;;;;;3.89;82.30;100854.22;5013273;28;20213;-82
2020/12/02 09:56:03;;;;;;;41.83;27.83;;;;;;;3.95;81.68;100856.00;5023103;28;20202;-81
2020/12/02 09:58:29;;;;;;;45.13;29.23;;;;;;;3.97;81.86;100844.84;5022042;28;20305;-82
2020/12/02 10:04:43;;;;;;;44.93;27.87;;;;;;;3.96;81.93;100837.97;4986219;28;20284;-82
2020/12/02 10:07:24;;;;;;;47.50;28.40;;;;;;;4.01;81.84;100838.03;5006654;28;20780;-81
2020/12/02 10:10:23;;;;;;;39.73;26.53;;;;;;;4.04;81.53;100822.56;5017843;28;20228;-80
2020/12/02 10:13:04;;;;;;;43.17;27.30;;;;;;;4.07;81.33;100825.19;5020282;28;20202;-81
2020/12/02 10:15:39;;;;;;;40.80;27.43;;;;;;;4.00;81.42;100820.78;5022615;28;20656;-83
2020/12/02 10:18:36;;;;;;;43.70;28.23;;;;;;;4.05;81.47;100810.53;5023836;28;20230;-81
2020/12/02 10:21:11;;;;;;;41.03;27.40;;;;;;;4.08;81.45;100807.97;5023173;28;20687;-82
2020/12/02 10:23:53;;;;;;;42.33;27.17;;;;;;;4.10;81.39;100796.84;5026287;28;20206;-82
2020/12/02 10:26:56;;;;;;;40.13;26.90;;;;;;;4.15;81.22;100791.72;5018215;28;20209;-82
2020/12/02 10:29:54;;;;;;;39.80;27.17;;;;;;;4.14;81.22;100790.84;5021302;28;20641;-82
2020/12/02 10:32:42;;;;;;;38.17;26.57;;;;;;;4.17;81.45;100785.72;5004517;28;20234;-82
2020/12/02 10:35:09;;;;;;;35.37;25.37;;;;;;;4.21;81.59;100781.44;5022422;28;20202;-80
2020/12/02 10:37:37;;;;;;;42.30;27.20;;;;;;;4.22;81.54;100775.41;5020915;28;20281;-81
2020/12/02 10:40:05;;;;;;;50.40;29.30;;;;;;;4.23;81.58;100774.59;5025993;28;20332;-81
2020/12/02 10:42:44;;;;;;;41.93;27.37;;;;;;;4.22;81.55;100770.25;5026326;28;20214;-81
2020/12/02 10:45:12;;;;;;;40.77;27.50;;;;;;;4.22;81.38;100767.66;5024704;28;20202;-81
2020/12/02 10:47:55;;;;;;;39.07;27.50;;;;;;;4.20;81.27;100763.34;5020572;28;20262;-81
2020/12/02 10:50:25;;;;;;;47.30;27.27;;;;;;;4.21;81.06;100757.34;5025674;28;20688;-81
2020/12/02 10:52:52;;;;;;;43.57;27.57;;;;;;;4.28;80.86;100756.53;5022783;28;20209;-82
2020/12/02 10:55:23;;;;;;;42.50;26.83;;;;;;;4.27;81.02;100747.94;5020771;28;20198;-80
2020/12/02 10:57:56;;;;;;;42.57;27.73;;;;;;;4.30;80.88;100748.00;5024932;28;20218;-82
2020/12/02 11:00:22;;;;;;;45.30;27.40;;;;;;;4.28;81.35;100741.94;5024076;28;20199;-82
2020/12/02 11:02:48;;;;;;;38.60;25.87;;;;;;;4.34;81.12;100733.34;5023343;28;20684;-81
2020/12/02 11:05:14;;;;;;;45.90;29.57;;;;;;;4.23;81.65;100738.41;5016177;28;20207;-80
2020/12/02 11:07:49;;;;;;;42.57;26.03;;;;;;;4.36;81.26;100729.06;5019546;28;20273;-82
2020/12/02 11:10:22;;;;;;;42.90;26.70;;;;;;;4.40;81.42;100722.22;5023944;28;20200;-81
2020/12/02 11:13:06;;;;;;;39.03;26.10;;;;;;;4.37;80.76;100723.94;5028499;28;20281;-81
2020/12/02 11:15:45;;;;;;;46.53;26.60;;;;;;;4.36;81.12;100714.47;5016820;28;20333;-81
2020/12/02 11:18:18;;;;;;;41.60;25.60;;;;;;;4.38;80.96;100706.72;5020602;28;20222;-82
2020/12/02 11:21:09;;;;;;;47.13;27.30;;;;;;;4.41;81.28;100708.47;5025076;28;20265;-81
2020/12/02 11:23:51;;;;;;;40.20;25.20;;;;;;;4.44;81.23;100700.72;5026095;28;20357;-83
2020/12/02 11:26:23;;;;;;;42.83;25.80;;;;;;;4.45;80.65;100703.34;5024521;28;20685;-81
2020/12/02 11:28:55;;;;;;;39.23;24.93;;;;;;;4.46;80.50;100688.69;5022235;28;20252;-80
2020/12/02 11:31:39;;;;;;;42.67;26.20;;;;;;;4.48;80.62;100685.28;5021232;28;20203;-81
2020/12/02 11:34:18;;;;;;;43.13;23.07;;;;;;;4.51;80.40;100687.88;5020910;28;20198;-80
2020/12/02 11:37:02;;;;;;;43.85;29.65;;;;;;;4.60;79.91;100674.19;5012188;28;20446;-82
2020/12/02 11:40:02;;;;;;;33.00;23.97;;;;;;;4.68;80.18;100676.84;5012948;28;20204;-81
2020/12/02 11:45:52;;;;;;;31.30;22.93;;;;;;;4.88;79.73;100667.53;5023522;28;20321;-85
2020/12/02 11:48:24;;;;;;;31.13;22.47;;;;;;;4.91;78.94;100659.78;5026665;28;20279;-86
2020/12/02 11:50:58;;;;;;;34.43;23.13;;;;;;;4.93;78.66;100662.38;5027861;28;20268;-84
2020/12/02 11:53:44;;;;;;;31.87;21.40;;;;;;;4.95;79.06;100656.38;5026536;28;20820;-85
2020/12/02 11:56:14;;;;;;;30.03;22.50;;;;;;;4.93;77.98;100657.22;5026373;28;20210;-85
2020/12/02 11:58:43;;;;;;;37.20;23.87;;;;;;;4.86;78.57;100650.28;5028902;28;20855;-86
2020/12/02 12:01:18;;;;;;;34.97;23.40;;;;;;;4.81;78.96;100658.00;5030387;28;20250;-84
2020/12/02 12:04:42;;;;;;;35.47;24.00;;;;;;;4.83;79.09;100650.25;5028080;28;20206;-84